Time;durP1;ratioP1;P1;durP2;ratioP2;P2;SDS_P1;SDS_P2;PMS_P1;PMS_P2;Temp;Humidity;BMP_temperature;BMP_pressure;BME280_temperature;BME280_humidity;BME280_pressure;Samples;Min_cycle;Max_cycle;Signal;HPM_P1;HPM_P2
2022/03/29 00:00:59;;;;;;;54.83;25.47;;;7.90;99.90;;;;;;4992110;28;20236;-81
2022/03/29 00:03:27;;;;;;;59.07;26.57;;;7.90;99.90;;;;;;5005456;28;20984;-82
2022/03/29 00:05:54;;;;;;;60.20;26.00;;;7.90;99.90;;;;;;5005677;28;20241;-80
2022/03/29 00:08:21;;;;;;;56.33;25.63;;;7.90;99.90;;;;;;5008358;28;20215;-81
2022/03/29 00:10:48;;;;;;;54.57;25.67;;;8.00;99.90;;;;;;4999392;28;20221;-81
2022/03/29 00:13:15;;;;;;;60.00;26.13;;;7.90;99.90;;;;;;5013315;28;20271;-81
2022/03/29 00:15:42;;;;;;;65.37;27.07;;;7.90;99.90;;;;;;5006423;28;20260;-81
2022/03/29 00:18:09;;;;;;;59.33;24.97;;;7.90;99.90;;;;;;5004597;28;20252;-81
2022/03/29 00:20:37;;;;;;;58.87;26.37;;;7.90;99.90;;;;;;4983383;28;20279;-81
2022/03/29 00:23:05;;;;;;;62.67;27.13;;;7.90;99.90;;;;;;5001935;28;20971;-81
2022/03/29 00:25:32;;;;;;;57.50;25.53;;;7.90;99.90;;;;;;5004361;28;20237;-81
2022/03/29 00:27:59;;;;;;;57.53;26.57;;;7.90;99.90;;;;;;4985454;28;20284;-79
2022/03/29 00:30:26;;;;;;;58.63;24.97;;;7.90;99.90;;;;;;5005102;28;20300;-80
2022/03/29 00:32:55;;;;;;;60.73;25.43;;;7.90;99.90;;;;;;5005011;28;20980;-78
2022/03/29 00:35:24;;;;;;;59.20;25.00;;;8.00;99.90;;;;;;5004521;28;20205;-80
2022/03/29 00:37:51;;;;;;;56.77;25.17;;;7.90;99.90;;;;;;5005786;28;20251;-80
2022/03/29 00:40:19;;;;;;;56.17;25.37;;;7.90;99.90;;;;;;5003917;28;20235;-79
2022/03/29 00:42:46;;;;;;;54.87;23.90;;;7.90;99.90;;;;;;5002608;28;20214;-81
2022/03/29 00:45:13;;;;;;;56.60;26.60;;;8.00;99.90;;;;;;4992037;28;21031;-81
2022/03/29 00:47:40;;;;;;;54.93;25.47;;;7.90;99.90;;;;;;5005220;28;20242;-80
2022/03/29 00:50:08;;;;;;;61.13;25.73;;;7.90;99.90;;;;;;4999455;28;20243;-80
2022/03/29 00:52:37;;;;;;;62.30;26.13;;;8.00;99.90;;;;;;4990782;28;20289;-80
2022/03/29 00:55:05;;;;;;;67.90;27.87;;;8.00;99.90;;;;;;4992371;28;20223;-80
2022/03/29 00:57:34;;;;;;;59.67;26.57;;;8.00;99.90;;;;;;5005074;28;20251;-79
2022/03/29 01:00:02;;;;;;;62.07;25.97;;;8.00;99.90;;;;;;5007700;28;20267;-81
2022/03/29 01:02:29;;;;;;;65.63;27.90;;;8.00;99.90;;;;;;5003113;28;20343;-80
2022/03/29 01:04:56;;;;;;;62.63;27.30;;;8.00;99.90;;;;;;5003777;28;20590;-80
2022/03/29 01:07:24;;;;;;;67.43;29.00;;;7.90;99.90;;;;;;5006175;28;20209;-80
2022/03/29 01:09:51;;;;;;;67.47;27.83;;;7.90;99.90;;;;;;5002473;28;20201;-80
2022/03/29 01:12:18;;;;;;;62.67;27.40;;;7.90;99.90;;;;;;5003708;28;20586;-80
2022/03/29 01:14:45;;;;;;;58.10;26.63;;;7.90;99.90;;;;;;5006576;28;20358;-81
2022/03/29 01:20:00;;;;;;;59.97;26.03;;;7.90;99.90;;;;;;5001140;28;20330;-81
2022/03/29 01:22:29;;;;;;;64.97;26.97;;;8.00;99.90;;;;;;4998446;28;20217;-81
2022/03/29 01:24:56;;;;;;;65.80;27.40;;;7.90;99.90;;;;;;5006656;28;20230;-80
2022/03/29 01:27:24;;;;;;;82.87;27.23;;;7.90;99.90;;;;;;5000560;28;20247;-80
2022/03/29 01:29:57;;;;;;;73.73;27.27;;;7.80;99.90;;;;;;5001610;28;20232;-81
2022/03/29 01:32:27;;;;;;;74.43;27.13;;;7.70;99.90;;;;;;4999192;28;20213;-80
2022/03/29 01:34:55;;;;;;;70.53;27.60;;;7.50;99.90;;;;;;4988509;28;20209;-81
2022/03/29 01:37:23;;;;;;;74.87;27.77;;;7.60;99.90;;;;;;5004961;28;20981;-81
2022/03/29 01:39:49;;;;;;;68.03;28.07;;;7.50;99.90;;;;;;5001284;28;20296;-80
2022/03/29 01:42:18;;;;;;;74.00;29.67;;;7.60;99.90;;;;;;5005601;28;20327;-80
2022/03/29 01:44:45;;;;;;;71.20;27.83;;;7.60;99.90;;;;;;5002389;28;20640;-80
2022/03/29 01:47:12;;;;;;;73.93;28.17;;;7.60;99.90;;;;;;5005443;28;20287;-81
2022/03/29 01:49:39;;;;;;;74.10;28.47;;;7.70;99.90;;;;;;5002189;28;20234;-80
2022/03/29 01:52:09;;;;;;;75.57;29.07;;;7.70;99.90;;;;;;4997723;28;20309;-81
2022/03/29 01:54:36;;;;;;;69.80;29.17;;;7.70;99.90;;;;;;5010634;28;20278;-79
2022/03/29 01:57:03;;;;;;;74.93;29.00;;;7.70;99.90;;;;;;5001575;28;20300;-80
2022/03/29 02:00:30;;;;;;;68.87;28.30;;;7.70;99.90;;;;;;5002991;28;20203;-80
2022/03/29 02:02:17;;;;;;;68.73;26.40;;;7.70;99.90;;;;;;5004744;28;20289;-80
2022/03/29 02:04:44;;;;;;;74.63;28.93;;;7.80;99.90;;;;;;5006803;28;20659;-80
2022/03/29 02:07:11;;;;;;;65.40;27.30;;;7.90;99.90;;;;;;5005187;28;20296;-79
2022/03/29 02:09:39;;;;;;;68.67;25.80;;;7.90;99.90;;;;;;5003098;28;20664;-80
2022/03/29 02:12:06;;;;;;;68.80;27.13;;;8.00;99.90;;;;;;5008939;28;20700;-80
2022/03/29 02:14:34;;;;;;;80.43;28.17;;;7.90;99.90;;;;;;5000253;28;20236;-82
2022/03/29 02:17:01;;;;;;;68.70;27.73;;;7.90;99.90;;;;;;5005678;28;20225;-80
2022/03/29 02:19:28;;;;;;;73.83;27.20;;;7.80;99.90;;;;;;5003391;28;20205;-80
2022/03/29 02:21:55;;;;;;;70.37;27.03;;;7.90;99.90;;;;;;5007116;28;20415;-81
2022/03/29 02:24:22;;;;;;;65.83;27.80;;;7.70;99.90;;;;;;5012888;28;20613;-81
2022/03/29 02:26:49;;;;;;;65.73;26.80;;;7.90;99.90;;;;;;4991987;28;20236;-81
2022/03/29 02:29:16;;;;;;;67.30;27.17;;;7.70;99.90;;;;;;5013082;28;20574;-80
2022/03/29 02:31:43;;;;;;;64.80;26.93;;;7.70;99.90;;;;;;5007537;28;20692;-80
2022/03/29 02:34:09;;;;;;;70.87;27.33;;;7.70;99.90;;;;;;5008744;28;20200;-82
2022/03/29 02:36:36;;;;;;;70.57;27.80;;;7.70;99.90;;;;;;5016768;28;20264;-81
2022/03/29 02:39:03;;;;;;;64.13;28.00;;;7.70;99.90;;;;;;5010322;28;20266;-81
2022/03/29 02:41:30;;;;;;;69.00;28.47;;;7.80;99.90;;;;;;4993221;28;20207;-81
2022/03/29 02:43:56;;;;;;;65.20;27.40;;;7.80;99.90;;;;;;5007980;28;20248;-79
2022/03/29 02:46:23;;;;;;;68.37;26.77;;;7.80;99.90;;;;;;5010776;28;20594;-81
2022/03/29 02:48:50;;;;;;;64.53;26.73;;;7.90;99.90;;;;;;5007529;28;20218;-81
2022/03/29 02:51:17;;;;;;;61.20;25.80;;;7.80;99.90;;;;;;5007809;28;20873;-81
2022/03/29 02:53:45;;;;;;;62.70;26.87;;;7.80;99.90;;;;;;5009144;28;20283;-81
2022/03/29 02:56:12;;;;;;;57.87;25.80;;;7.70;99.90;;;;;;4990120;28;20650;-80
2022/03/29 02:58:38;;;;;;;63.17;25.77;;;7.80;99.90;;;;;;5010382;28;21328;-81
2022/03/29 03:01:05;;;;;;;58.00;25.77;;;7.80;99.90;;;;;;5003958;28;20318;-80
2022/03/29 03:03:32;;;;;;;57.87;24.60;;;7.80;99.90;;;;;;5003678;28;20269;-79
2022/03/29 03:06:01;;;;;;;63.43;26.77;;;8.00;99.90;;;;;;5005307;28;20258;-80
2022/03/29 03:08:30;;;;;;;61.40;25.13;;;7.90;99.90;;;;;;5007298;28;20314;-79
2022/03/29 03:10:57;;;;;;;64.37;26.70;;;7.90;99.90;;;;;;5007294;28;20271;-80
2022/03/29 03:13:24;;;;;;;56.90;24.50;;;8.00;99.90;;;;;;5004837;28;20790;-81
2022/03/29 03:15:50;;;;;;;61.27;26.27;;;7.90;99.90;;;;;;5006322;28;20267;-80
2022/03/29 03:18:17;;;;;;;63.17;25.37;;;7.90;99.90;;;;;;5005049;28;20263;-81
2022/03/29 03:20:44;;;;;;;57.10;24.97;;;8.00;99.90;;;;;;5009603;28;20789;-79
2022/03/29 03:23:11;;;;;;;58.17;24.17;;;8.00;99.90;;;;;;5010375;28;20688;-80
2022/03/29 03:25:38;;;;;;;58.37;23.93;;;7.90;99.90;;;;;;5025979;28;20278;-80
2022/03/29 03:28:06;;;;;;;62.53;25.87;;;7.90;99.90;;;;;;5007321;28;20205;-79
2022/03/29 03:30:33;;;;;;;60.67;25.80;;;7.90;99.90;;;;;;5017896;28;20266;-81
2022/03/29 03:33:00;;;;;;;61.90;25.40;;;7.80;99.90;;;;;;5014844;28;20243;-80
2022/03/29 03:35:29;;;;;;;59.10;25.37;;;7.90;99.90;;;;;;5007214;28;20211;-79
2022/03/29 03:37:56;;;;;;;65.50;27.27;;;7.90;99.90;;;;;;5013557;28;20254;-81
2022/03/29 03:40:23;;;;;;;56.70;23.77;;;7.90;99.90;;;;;;5016542;28;20247;-80
2022/03/29 03:42:49;;;;;;;66.40;27.23;;;7.90;99.90;;;;;;5023936;28;20204;-80
2022/03/29 03:45:16;;;;;;;63.17;25.77;;;7.90;99.90;;;;;;4990785;28;20252;-83
2022/03/29 03:47:46;;;;;;;61.43;25.87;;;7.90;99.90;;;;;;5008682;28;20316;-80
2022/03/29 03:50:12;;;;;;;62.30;26.23;;;7.90;99.90;;;;;;5008348;28;20255;-81
2022/03/29 03:52:40;;;;;;;65.17;27.13;;;7.90;99.90;;;;;;5007703;28;20210;-80
2022/03/29 03:55:08;;;;;;;60.63;25.27;;;7.90;99.90;;;;;;5009147;28;20290;-82
2022/03/29 03:57:35;;;;;;;57.70;25.53;;;7.90;99.90;;;;;;5005801;28;20295;-81
2022/03/29 04:00:06;;;;;;;58.33;25.07;;;7.90;99.90;;;;;;5004190;28;20266;-80
2022/03/29 04:02:34;;;;;;;59.30;25.00;;;8.00;99.90;;;;;;5010502;28;20204;-82
2022/03/29 04:05:01;;;;;;;55.67;24.27;;;8.00;99.90;;;;;;5001493;28;20210;-80
2022/03/29 04:07:28;;;;;;;61.97;26.27;;;8.10;99.90;;;;;;5006681;28;20223;-81
2022/03/29 04:09:55;;;;;;;59.97;25.00;;;7.90;99.90;;;;;;5003119;28;20235;-80
2022/03/29 04:12:22;;;;;;;63.60;25.80;;;8.00;99.90;;;;;;5000017;28;20638;-81
2022/03/29 04:14:49;;;;;;;58.23;25.50;;;8.00;99.90;;;;;;5013875;28;20231;-80
2022/03/29 04:17:16;;;;;;;56.57;24.30;;;8.00;99.90;;;;;;5004243;28;20220;-81
2022/03/29 04:19:43;;;;;;;54.70;23.33;;;7.80;99.90;;;;;;4990909;28;20254;-81
2022/03/29 04:22:09;;;;;;;55.63;25.47;;;7.80;99.90;;;;;;5005818;28;20221;-81
2022/03/29 04:24:37;;;;;;;58.53;25.97;;;7.70;99.90;;;;;;5005013;28;20211;-81
2022/03/29 04:27:05;;;;;;;58.07;25.10;;;7.60;99.90;;;;;;4992862;28;20238;-80
2022/03/29 04:29:31;;;;;;;62.13;26.53;;;7.60;99.90;;;;;;5007237;28;20251;-81
2022/03/29 04:31:59;;;;;;;54.60;24.43;;;7.70;99.90;;;;;;5006205;28;20225;-82
2022/03/29 04:34:26;;;;;;;53.83;23.63;;;7.70;99.90;;;;;;4997498;28;20228;-81
2022/03/29 04:36:53;;;;;;;50.43;24.13;;;7.60;99.90;;;;;;4992516;28;20708;-82
2022/03/29 04:39:21;;;;;;;56.10;23.33;;;7.80;99.90;;;;;;5008219;28;20616;-81
2022/03/29 04:41:48;;;;;;;51.90;24.07;;;7.60;99.90;;;;;;4989458;28;20236;-81
2022/03/29 04:44:36;;;;;;;54.47;22.97;;;7.60;99.90;;;;;;5005358;28;20891;-81
2022/03/29 04:47:04;;;;;;;55.80;23.67;;;7.70;99.90;;;;;;5006688;28;20292;-83
2022/03/29 04:49:31;;;;;;;51.87;23.20;;;7.60;99.90;;;;;;4992947;28;20249;-82
2022/03/29 04:51:59;;;;;;;54.77;23.10;;;7.50;99.90;;;;;;5002482;28;20293;-81
2022/03/29 04:54:26;;;;;;;54.33;24.10;;;7.50;99.90;;;;;;4987098;28;20427;-81
2022/03/29 04:56:54;;;;;;;61.07;24.20;;;7.50;99.90;;;;;;5004028;28;20622;-81
2022/03/29 04:59:21;;;;;;;58.27;25.33;;;7.50;99.90;;;;;;5002005;28;20610;-81
2022/03/29 05:01:48;;;;;;;60.77;24.37;;;7.50;99.90;;;;;;5001229;28;20314;-82
2022/03/29 05:04:44;;;;;;;48.23;22.30;;;7.50;99.90;;;;;;5000565;28;20291;-82
2022/03/29 05:07:30;;;;;;;51.33;23.67;;;7.50;99.90;;;;;;4982567;28;20318;-82
2022/03/29 05:09:57;;;;;;;57.50;23.63;;;7.40;99.90;;;;;;5004015;28;20293;-82
2022/03/29 05:12:24;;;;;;;55.07;23.63;;;7.40;99.90;;;;;;5002750;28;20207;-82
2022/03/29 05:14:51;;;;;;;52.93;23.27;;;7.40;99.90;;;;;;5003922;28;20676;-81
2022/03/29 05:17:18;;;;;;;51.87;24.30;;;7.40;99.90;;;;;;5003723;28;20238;-83
2022/03/29 05:19:44;;;;;;;48.57;22.03;;;7.30;99.90;;;;;;5003108;28;20275;-83
2022/03/29 05:22:12;;;;;;;49.17;21.73;;;7.30;99.90;;;;;;4998050;28;20277;-82
2022/03/29 05:24:41;;;;;;;51.43;22.57;;;7.30;99.90;;;;;;5006399;28;20650;-81
2022/03/29 05:27:33;;;;;;;;;;;;;;;;;;;;;
2022/03/29 05:30:13;;;;;;;47.53;21.63;;;7.30;99.90;;;;;;5004476;28;20241;-82
2022/03/29 05:33:00;;;;;;;53.97;22.70;;;7.30;99.90;;;;;;4999414;28;20562;-82
2022/03/29 05:35:32;;;;;;;51.63;23.73;;;7.30;99.90;;;;;;5007931;28;20216;-81
2022/03/29 05:38:02;;;;;;;53.57;22.43;;;7.30;99.90;;;;;;4993274;28;20233;-82
2022/03/29 05:40:30;;;;;;;53.87;22.30;;;7.30;99.90;;;;;;5005134;28;20208;-81
2022/03/29 05:42:57;;;;;;;49.80;22.17;;;7.50;99.90;;;;;;5006456;28;20212;-81
2022/03/29 05:45:24;;;;;;;54.83;23.13;;;7.30;99.90;;;;;;5004056;28;20265;-81
2022/03/29 05:50:39;;;;;;;53.03;22.47;;;7.60;99.90;;;;;;5009917;28;20294;-81
2022/03/29 05:53:06;;;;;;;51.67;23.53;;;7.50;99.90;;;;;;5012022;28;20221;-82
2022/03/29 05:55:34;;;;;;;56.50;23.07;;;7.50;99.90;;;;;;5008557;28;20217;-81
2022/03/29 05:58:00;;;;;;;53.00;24.97;;;7.50;99.90;;;;;;5004698;28;20375;-81
2022/03/29 06:00:29;;;;;;;58.53;22.73;;;7.50;99.90;;;;;;5005371;28;20349;-82
2022/03/29 06:02:57;;;;;;;50.27;23.57;;;7.60;99.90;;;;;;5001984;28;20563;-81
2022/03/29 06:05:24;;;;;;;55.80;23.97;;;7.50;99.90;;;;;;5004765;28;20361;-82
2022/03/29 06:07:50;;;;;;;55.83;22.20;;;7.50;99.90;;;;;;4990745;28;20707;-81
2022/03/29 06:10:17;;;;;;;53.30;22.10;;;7.60;99.90;;;;;;5004697;28;20228;-82
2022/03/29 06:12:45;;;;;;;58.87;23.93;;;7.50;99.90;;;;;;5009987;28;20211;-82
2022/03/29 06:15:13;;;;;;;63.80;23.80;;;7.60;99.90;;;;;;5007690;28;20230;-81
2022/03/29 06:17:40;;;;;;;56.83;23.83;;;7.50;99.90;;;;;;4991179;28;20730;-81
2022/03/29 06:20:09;;;;;;;56.03;22.53;;;7.50;99.90;;;;;;5007745;28;20733;-81
2022/03/29 06:22:43;;;;;;;58.10;24.90;;;7.50;99.90;;;;;;4994492;28;20722;-82
2022/03/29 06:25:12;;;;;;;56.03;24.30;;;7.40;99.90;;;;;;5007901;28;20227;-83
2022/03/29 06:27:39;;;;;;;51.07;22.47;;;7.50;99.90;;;;;;5006167;28;20234;-82
2022/03/29 06:30:08;;;;;;;59.60;23.97;;;7.50;99.90;;;;;;5005301;28;20300;-81
2022/03/29 06:32:44;;;;;;;55.13;22.97;;;7.40;99.90;;;;;;5007177;28;20216;-85
2022/03/29 06:35:12;;;;;;;63.07;24.60;;;7.50;99.90;;;;;;4989270;28;20204;-84
2022/03/29 06:37:39;;;;;;;59.13;24.03;;;7.40;99.90;;;;;;4987153;28;20271;-84
2022/03/29 06:40:06;;;;;;;63.97;25.10;;;7.20;99.90;;;;;;4996082;28;20209;-85
2022/03/29 06:42:33;;;;;;;60.13;23.40;;;7.20;99.90;;;;;;4993185;28;20252;-83
2022/03/29 06:45:00;;;;;;;52.03;23.23;;;7.30;99.90;;;;;;4991799;28;20205;-84
2022/03/29 06:47:26;;;;;;;52.53;23.40;;;7.20;99.90;;;;;;4993784;28;20275;-84
2022/03/29 06:49:54;;;;;;;55.60;24.17;;;7.20;99.90;;;;;;4994999;28;20206;-84
2022/03/29 06:52:26;;;;;;;54.77;22.97;;;7.20;99.90;;;;;;4994704;28;20271;-84
2022/03/29 06:54:53;;;;;;;56.70;23.73;;;7.10;99.90;;;;;;4997606;28;20213;-84
2022/03/29 06:57:22;;;;;;;62.43;24.37;;;6.90;99.90;;;;;;4978335;28;20237;-84
2022/03/29 06:59:51;;;;;;;61.40;24.57;;;6.80;99.90;;;;;;5002000;28;20209;-87
2022/03/29 07:02:21;;;;;;;59.10;23.83;;;6.80;99.90;;;;;;4984771;28;20279;-84
2022/03/29 07:04:48;;;;;;;58.13;25.13;;;6.70;99.90;;;;;;4973850;28;20774;-83
2022/03/29 07:07:15;;;;;;;64.53;25.23;;;6.70;99.90;;;;;;4991569;28;20313;-84
2022/03/29 07:12:31;;;;;;;59.10;23.20;;;6.70;99.90;;;;;;4992703;28;20246;-84
2022/03/29 07:15:01;;;;;;;62.97;23.63;;;6.70;99.90;;;;;;4977859;28;20216;-84
2022/03/29 07:17:28;;;;;;;65.83;25.77;;;6.70;99.90;;;;;;5001791;28;20642;-84
2022/03/29 07:19:55;;;;;;;60.77;24.23;;;6.80;99.90;;;;;;4979843;28;20311;-84
2022/03/29 07:22:23;;;;;;;59.70;23.90;;;6.90;99.90;;;;;;4994502;28;20246;-83
2022/03/29 07:24:55;;;;;;;61.40;23.93;;;7.00;99.90;;;;;;4978560;28;20258;-85
2022/03/29 07:27:22;;;;;;;64.43;26.07;;;6.90;99.90;;;;;;4975562;28;20240;-82
2022/03/29 07:29:50;;;;;;;63.97;24.30;;;6.90;99.90;;;;;;4998254;28;20268;-84
2022/03/29 07:32:16;;;;;;;60.87;23.67;;;7.00;99.90;;;;;;4993651;28;20235;-84
2022/03/29 07:34:43;;;;;;;51.40;21.27;;;7.10;99.90;;;;;;4984939;28;20217;-86
2022/03/29 07:37:10;;;;;;;52.03;24.03;;;7.10;99.90;;;;;;5006255;28;20304;-84
2022/03/29 07:39:40;;;;;;;54.23;22.23;;;7.20;99.90;;;;;;5010951;28;20907;-86
2022/03/29 07:42:07;;;;;;;53.17;22.77;;;7.40;99.90;;;;;;5008808;28;20341;-83
2022/03/29 07:44:34;;;;;;;51.33;22.53;;;7.50;99.90;;;;;;5010414;28;20300;-83
2022/03/29 07:47:03;;;;;;;52.03;21.40;;;7.50;99.90;;;;;;5007779;28;20279;-83
2022/03/29 07:49:30;;;;;;;43.97;20.63;;;7.50;99.90;;;;;;5007623;28;20276;-84
2022/03/29 07:52:18;;;;;;;44.87;20.40;;;7.60;99.90;;;;;;4991636;28;20226;-84
2022/03/29 07:54:45;;;;;;;44.77;21.23;;;7.70;99.90;;;;;;4990907;28;20212;-84
2022/03/29 07:57:12;;;;;;;43.47;18.93;;;7.70;99.90;;;;;;5006223;28;20328;-85
2022/03/29 07:59:59;;;;;;;43.90;19.73;;;7.80;99.90;;;;;;4995545;28;20218;-83
2022/03/29 08:02:26;;;;;;;39.13;18.97;;;7.90;99.90;;;;;;5001622;28;20214;-83
2022/03/29 08:04:55;;;;;;;47.53;20.77;;;7.90;99.90;;;;;;4992647;28;20302;-86
2022/03/29 08:07:25;;;;;;;43.23;20.03;;;7.90;99.90;;;;;;4990636;28;20239;-85
2022/03/29 08:09:52;;;;;;;44.07;22.03;;;8.20;99.90;;;;;;4988618;28;20202;-83
2022/03/29 08:12:19;;;;;;;42.37;20.43;;;7.90;99.90;;;;;;5013964;28;20205;-84
2022/03/29 08:14:46;;;;;;;46.37;21.30;;;8.20;99.90;;;;;;4986880;28;20214;-83
2022/03/29 08:17:13;;;;;;;46.67;21.73;;;8.20;99.90;;;;;;4989082;28;20665;-84
2022/03/29 08:19:39;;;;;;;44.23;19.80;;;8.30;99.90;;;;;;5005542;28;20210;-83
2022/03/29 08:22:06;;;;;;;45.00;20.80;;;8.30;99.90;;;;;;4985295;28;20580;-83
2022/03/29 08:24:34;;;;;;;40.87;20.07;;;8.40;99.90;;;;;;5006363;28;20215;-83
2022/03/29 08:27:01;;;;;;;45.80;21.50;;;8.70;99.90;;;;;;4993718;28;20311;-84
2022/03/29 08:29:28;;;;;;;42.43;20.47;;;8.40;99.90;;;;;;5008581;28;20634;-82
2022/03/29 08:31:55;;;;;;;43.43;20.30;;;8.50;99.90;;;;;;4990452;28;20319;-82
2022/03/29 08:34:24;;;;;;;41.23;20.27;;;8.50;99.90;;;;;;4989262;28;20634;-83
2022/03/29 08:36:52;;;;;;;40.87;20.07;;;8.30;99.90;;;;;;4990418;28;20219;-84
2022/03/29 08:39:19;;;;;;;42.97;21.13;;;8.60;99.90;;;;;;4992542;28;20268;-84
2022/03/29 08:41:52;;;;;;;43.53;21.40;;;8.70;99.90;;;;;;4989974;28;20241;-83
2022/03/29 08:44:19;;;;;;;42.53;20.97;;;9.00;99.90;;;;;;5005088;28;20306;-83
2022/03/29 08:46:48;;;;;;;43.00;19.70;;;8.70;99.90;;;;;;5009011;28;20230;-85
2022/03/29 08:49:18;;;;;;;41.13;19.27;;;8.80;99.90;;;;;;5004267;28;20301;-84
2022/03/29 08:51:46;;;;;;;43.33;20.63;;;8.90;99.90;;;;;;5004218;28;20330;-83
2022/03/29 08:54:13;;;;;;;45.13;20.37;;;9.50;99.90;;;;;;5000510;28;20665;-85
2022/03/29 08:56:41;;;;;;;39.60;20.17;;;10.00;99.90;;;;;;5003963;28;20202;-84
2022/03/29 08:59:08;;;;;;;42.47;20.87;;;8.90;99.90;;;;;;5000275;28;20219;-83
2022/03/29 09:01:34;;;;;;;37.23;19.83;;;8.90;99.90;;;;;;5005667;28;20697;-83
2022/03/29 09:04:16;;;;;;;40.43;20.43;;;9.20;99.90;;;;;;5001685;28;20208;-84
2022/03/29 09:07:03;;;;;;;41.70;20.87;;;9.30;99.90;;;;;;5003886;28;20551;-83
2022/03/29 09:09:37;;;;;;;41.30;21.13;;;9.30;99.90;;;;;;4990477;28;20218;-83
2022/03/29 09:12:12;;;;;;;38.67;19.80;;;9.30;99.90;;;;;;5008412;28;20207;-85
2022/03/29 09:14:57;;;;;;;37.97;19.57;;;9.30;99.90;;;;;;5006001;28;20758;-83
2022/03/29 09:17:35;;;;;;;40.17;21.57;;;9.30;99.90;;;;;;4991472;28;20234;-82
2022/03/29 09:20:07;;;;;;;41.43;19.97;;;9.20;99.90;;;;;;5002125;28;20679;-81
2022/03/29 09:22:49;;;;;;;41.83;20.37;;;9.30;99.90;;;;;;5004930;28;20290;-83
2022/03/29 09:25:20;;;;;;;41.97;20.47;;;9.40;99.90;;;;;;5006644;28;20281;-83
2022/03/29 09:27:56;;;;;;;38.27;19.97;;;9.50;99.90;;;;;;4993719;28;20280;-81
2022/03/29 09:30:27;;;;;;;41.87;21.47;;;9.50;99.90;;;;;;5007509;28;20603;-82
2022/03/29 09:33:00;;;;;;;44.70;21.27;;;9.60;99.90;;;;;;4989369;28;20287;-81
2022/03/29 09:35:30;;;;;;;41.63;20.67;;;9.60;99.90;;;;;;5003779;28;20591;-82
2022/03/29 09:37:58;;;;;;;41.27;21.60;;;9.70;99.90;;;;;;5010259;28;20732;-81
2022/03/29 09:40:38;;;;;;;43.80;23.23;;;9.70;99.90;;;;;;5009698;28;20635;-81
2022/03/29 09:43:08;;;;;;;44.90;22.80;;;9.70;99.90;;;;;;4987250;28;20264;-82
2022/03/29 09:45:44;;;;;;;42.17;22.33;;;9.80;99.90;;;;;;5008714;28;20315;-82
2022/03/29 09:48:36;;;;;;;42.90;21.83;;;9.80;99.90;;;;;;4986971;28;20230;-83
2022/03/29 09:51:09;;;;;;;46.50;23.40;;;10.00;99.90;;;;;;5002510;28;20251;-82
2022/03/29 09:53:43;;;;;;;44.57;23.23;;;10.10;99.90;;;;;;5006308;28;20205;-83
2022/03/29 09:56:15;;;;;;;39.80;21.40;;;10.20;99.90;;;;;;5003165;28;20325;-83
2022/03/29 09:59:08;;;;;;;44.33;22.10;;;10.30;99.90;;;;;;5000638;28;20668;-83
2022/03/29 10:01:55;;;;;;;43.40;22.97;;;10.60;99.90;;;;;;5002228;28;20229;-84
2022/03/29 10:04:25;;;;;;;42.17;22.00;;;10.90;99.90;;;;;;4988668;28;20205;-81
2022/03/29 10:06:57;;;;;;;46.23;22.63;;;11.20;99.90;;;;;;5000347;28;20317;-83
2022/03/29 10:09:32;;;;;;;42.97;23.53;;;11.70;99.90;;;;;;5007371;28;20690;-81
2022/03/29 10:12:03;;;;;;;44.87;24.10;;;11.70;99.90;;;;;;4983521;28;20212;-81
2022/03/29 10:14:34;;;;;;;48.77;23.00;;;;;;;;;;5005573;28;20221;-83
2022/03/29 10:17:02;;;;;;;43.07;22.40;;;12.30;99.90;;;;;;5002698;28;20234;-80
2022/03/29 10:19:30;;;;;;;43.03;23.60;;;12.40;99.90;;;;;;5001596;28;20648;-81
2022/03/29 10:21:58;;;;;;;46.03;23.40;;;12.40;99.90;;;;;;4999722;28;20246;-80
2022/03/29 10:24:28;;;;;;;44.63;23.37;;;12.20;99.90;;;;;;5005161;28;20666;-81
2022/03/29 10:26:56;;;;;;;44.67;23.27;;;12.10;99.90;;;;;;5001916;28;20689;-81
2022/03/29 10:29:23;;;;;;;42.77;23.07;;;12.10;99.90;;;;;;4991340;28;20293;-81
2022/03/29 10:32:01;;;;;;;40.27;22.10;;;12.20;99.90;;;;;;5005159;28;20608;-82
2022/03/29 10:38:30;;;;;;;;;;;;;;;;;;;;;
2022/03/29 10:41:26;;;;;;;42.20;22.10;;;12.70;99.90;;;;;;4923675;28;20217;-82
2022/03/29 10:43:53;;;;;;;41.63;21.10;;;12.80;99.90;;;;;;5004463;28;20210;-81
2022/03/29 10:46:37;;;;;;;37.20;20.87;;;12.80;99.90;;;;;;5000322;28;20270;-82
2022/03/29 10:49:28;;;;;;;41.77;20.47;;;12.90;99.90;;;;;;5006801;28;20373;-82
2022/03/29 10:52:05;;;;;;;43.13;22.77;;;12.90;99.90;;;;;;4986448;28;20313;-82
2022/03/29 10:54:32;;;;;;;40.33;20.97;;;12.90;99.90;;;;;;5015633;28;20265;-83
2022/03/29 10:57:06;;;;;;;43.90;21.63;;;12.90;99.90;;;;;;5007276;28;20215;-82
2022/03/29 10:59:37;;;;;;;38.23;20.43;;;12.90;99.90;;;;;;5004221;28;20556;-81
2022/03/29 11:02:22;;;;;;;40.33;21.97;;;13.00;99.90;;;;;;4985039;28;20650;-80
2022/03/29 11:05:08;;;;;;;40.63;21.83;;;13.00;99.90;;;;;;5004276;28;20229;-80
2022/03/29 11:07:36;;;;;;;37.93;20.20;;;13.20;99.90;;;;;;5001286;28;20334;-80
2022/03/29 11:10:19;;;;;;;35.73;20.37;;;13.30;99.90;;;;;;5002318;28;20691;-83
2022/03/29 11:12:51;;;;;;;36.67;20.43;;;13.40;99.90;;;;;;4987996;28;20586;-81
2022/03/29 11:15:24;;;;;;;38.97;19.97;;;13.60;99.90;;;;;;5006901;28;20246;-82
2022/03/29 11:17:52;;;;;;;38.27;21.27;;;13.70;99.90;;;;;;4999550;28;20215;-81
2022/03/29 11:20:34;;;;;;;37.50;20.73;;;13.70;99.90;;;;;;5008947;28;20233;-80
2022/03/29 11:23:04;;;;;;;38.83;21.53;;;13.80;99.90;;;;;;5001556;28;20223;-81
2022/03/29 11:25:47;;;;;;;38.87;21.37;;;13.80;99.90;;;;;;4992936;28;20527;-81
2022/03/29 11:28:19;;;;;;;40.03;20.77;;;14.10;99.90;;;;;;4990619;28;20647;-81
2022/03/29 11:30:52;;;;;;;35.17;19.73;;;14.10;99.90;;;;;;5001648;28;20284;-81
2022/03/29 11:33:33;;;;;;;39.43;20.67;;;14.10;99.90;;;;;;5006921;28;20297;-80
2022/03/29 11:36:05;;;;;;;37.83;21.43;;;14.20;99.90;;;;;;5007186;28;20746;-81
2022/03/29 11:38:33;;;;;;;37.60;20.57;;;14.20;99.90;;;;;;4991669;28;20289;-82
2022/03/29 11:41:04;;;;;;;39.50;21.07;;;14.30;99.90;;;;;;5009581;28;20270;-82
2022/03/29 11:43:32;;;;;;;42.33;21.03;;;14.50;99.90;;;;;;5004729;28;20218;-81
2022/03/29 11:46:00;;;;;;;36.60;21.30;;;14.60;99.90;;;;;;5006236;28;20746;-81
2022/03/29 11:48:29;;;;;;;43.60;22.27;;;14.70;99.90;;;;;;4985548;28;20817;-81
2022/03/29 11:51:09;;;;;;;42.40;22.80;;;14.80;99.90;;;;;;5005268;28;20257;-81
2022/03/29 11:53:36;;;;;;;43.10;23.57;;;14.90;99.90;;;;;;5008481;28;20214;-83
2022/03/29 11:56:04;;;;;;;46.27;23.13;;;15.10;99.90;;;;;;5002401;28;20358;-82
2022/03/29 11:58:40;;;;;;;45.27;24.40;;;15.20;99.90;;;;;;5005661;28;20210;-81
2022/03/29 12:01:22;;;;;;;47.03;24.73;;;15.40;99.90;;;;;;5004388;28;20348;-82
2022/03/29 12:03:57;;;;;;;40.53;23.30;;;15.40;99.90;;;;;;5004749;28;20269;-81
2022/03/29 12:06:27;;;;;;;40.97;21.83;;;15.40;99.90;;;;;;5007015;28;20544;-82
2022/03/29 12:09:02;;;;;;;45.37;25.10;;;15.30;99.90;;;;;;5002847;28;20269;-82
2022/03/29 12:11:31;;;;;;;43.50;23.70;;;15.40;99.90;;;;;;4999930;28;20730;-80
2022/03/29 12:14:11;;;;;;;46.67;24.10;;;15.40;99.90;;;;;;4987534;28;20207;-83
2022/03/29 12:16:43;;;;;;;42.00;21.97;;;15.50;99.90;;;;;;5001646;28;20620;-82
2022/03/29 12:19:27;;;;;;;47.17;23.00;;;15.40;99.90;;;;;;5007547;28;20705;-82
2022/03/29 12:22:00;;;;;;;38.20;21.33;;;15.60;99.90;;;;;;5003001;28;20222;-82
2022/03/29 12:24:42;;;;;;;42.33;23.73;;;15.80;99.90;;;;;;5006338;28;20217;-84
2022/03/29 12:27:15;;;;;;;40.27;23.03;;;15.90;99.90;;;;;;5009198;28;20207;-83
2022/03/29 12:29:49;;;;;;;41.30;22.40;;;16.00;99.90;;;;;;4997713;28;20619;-84
2022/03/29 12:32:19;;;;;;;40.13;22.27;;;15.90;99.90;;;;;;5008950;28;20284;-82
2022/03/29 12:35:03;;;;;;;46.30;23.77;;;16.00;99.90;;;;;;4990973;28;20328;-82
2022/03/29 12:37:30;;;;;;;39.87;22.17;;;15.90;99.90;;;;;;5005800;28;20321;-83
2022/03/29 12:40:03;;;;;;;46.43;22.47;;;15.80;99.90;;;;;;4989810;28;20215;-83
2022/03/29 12:42:33;;;;;;;39.30;22.50;;;15.90;99.90;;;;;;5002389;28;20242;-82
2022/03/29 12:45:03;;;;;;;44.63;23.17;;;16.00;99.90;;;;;;5004695;28;20281;-82
2022/03/29 12:47:33;;;;;;;40.70;23.03;;;16.10;99.90;;;;;;4990877;28;20582;-84
2022/03/29 12:50:02;;;;;;;37.07;22.07;;;15.90;99.90;;;;;;5005804;28;20298;-84
2022/03/29 12:52:37;;;;;;;38.07;20.40;;;16.00;99.90;;;;;;5005771;28;21029;-82
2022/03/29 12:55:05;;;;;;;38.23;21.23;;;16.10;99.90;;;;;;5007066;28;20210;-83
2022/03/29 12:57:37;;;;;;;40.43;21.93;;;16.00;99.90;;;;;;5001876;28;20210;-82
2022/03/29 13:00:10;;;;;;;37.80;21.70;;;16.10;99.90;;;;;;5003846;28;20222;-83
2022/03/29 13:02:46;;;;;;;40.57;20.93;;;16.20;99.90;;;;;;4990232;28;20206;-84
2022/03/29 13:05:14;;;;;;;38.97;20.43;;;16.10;99.90;;;;;;4987870;28;20246;-83